createdAt,value
2024-05-09T00:02:04.615Z,98938.00
2024-05-09T00:04:40.666Z,98943.00
2024-05-09T00:07:16.655Z,98940.00
2024-05-09T00:09:52.909Z,98937.00
2024-05-09T00:12:28.949Z,98936.00
2024-05-09T00:15:05.663Z,98923.00
2024-05-09T00:17:41.904Z,98920.00
2024-05-09T00:20:24.399Z,98924.00
2024-05-09T00:23:06.790Z,98931.00
2024-05-09T00:25:44.092Z,98930.00
2024-05-09T00:28:20.310Z,98931.00
2024-05-09T00:30:56.362Z,98929.00
2024-05-09T00:33:32.461Z,98927.00
2024-05-09T00:36:08.570Z,98924.00
2024-05-09T00:38:45.531Z,98922.00
2024-05-09T00:41:21.616Z,98920.00
2024-05-09T00:43:57.780Z,98923.00
2024-05-09T00:46:33.810Z,98921.00
2024-05-09T00:49:10.144Z,98913.00
2024-05-09T00:51:46.284Z,98913.00
2024-05-09T00:54:23.353Z,98913.00
2024-05-09T00:56:59.617Z,98918.00
2024-05-09T00:59:35.883Z,98915.00
2024-05-09T01:02:12.643Z,98914.00
2024-05-09T01:04:50.183Z,98916.00
2024-05-09T01:07:26.375Z,98917.00
2024-05-09T01:10:02.436Z,98917.00
2024-05-09T01:12:38.913Z,98909.00
2024-05-09T01:15:15.056Z,98917.00
2024-05-09T01:17:51.597Z,98911.00
2024-05-09T01:20:37.248Z,98914.00
2024-05-09T01:23:18.030Z,98908.00
2024-05-09T01:25:54.160Z,98912.00
2024-05-09T01:28:30.222Z,98906.00
2024-05-09T01:31:06.344Z,98907.00
2024-05-09T01:33:45.583Z,98922.00
2024-05-09T01:36:21.726Z,98908.00
2024-05-09T01:38:57.880Z,98903.00
2024-05-09T01:41:34.007Z,98902.00
2024-05-09T01:44:10.196Z,98897.00
2024-05-09T01:46:46.308Z,98912.00
2024-05-09T01:49:22.515Z,98912.00
2024-05-09T01:51:58.588Z,98908.00
2024-05-09T01:54:34.586Z,98917.00
2024-05-09T01:57:10.581Z,98919.00
2024-05-09T01:59:46.801Z,98915.00
2024-05-09T02:02:22.987Z,98915.00
2024-05-09T02:04:59.107Z,98910.00
2024-05-09T02:07:35.450Z,98917.00
2024-05-09T02:10:16.733Z,98922.00
2024-05-09T02:12:59.321Z,98915.00
2024-05-09T02:15:35.465Z,98909.00
2024-05-09T02:18:11.999Z,98914.00
2024-05-09T02:20:48.826Z,98916.00
2024-05-09T02:23:24.845Z,98918.00
2024-05-09T02:26:00.901Z,98910.00
2024-05-09T02:28:36.977Z,98915.00
2024-05-09T02:31:13.415Z,98917.00
2024-05-09T02:33:49.700Z,98916.00
2024-05-09T02:36:26.035Z,98906.00
2024-05-09T02:39:02.183Z,98918.00
2024-05-09T02:41:38.216Z,98924.00
2024-05-09T02:44:14.403Z,98909.00
2024-05-09T02:46:50.457Z,98918.00
2024-05-09T02:49:26.572Z,98923.00
2024-05-09T02:52:02.758Z,98919.00
2024-05-09T02:54:38.819Z,98919.00
2024-05-09T02:57:14.802Z,98921.00
2024-05-09T02:59:50.816Z,98920.00
2024-05-09T03:02:27.139Z,98924.00
2024-05-09T03:05:03.433Z,98920.00
2024-05-09T03:07:39.444Z,98916.00
2024-05-09T03:10:22.239Z,98921.00
2024-05-09T03:13:07.354Z,98919.00
2024-05-09T03:15:44.620Z,98914.00
2024-05-09T03:18:20.868Z,98922.00
2024-05-09T03:20:56.975Z,98920.00
2024-05-09T03:23:32.999Z,98911.00
2024-05-09T03:26:14.075Z,98921.00
2024-05-09T03:28:50.073Z,98923.00
2024-05-09T03:31:26.134Z,98917.00
2024-05-09T03:34:02.668Z,98916.00
2024-05-09T03:36:43.174Z,98917.00
2024-05-09T03:39:19.177Z,98914.00
2024-05-09T03:41:55.263Z,98911.00
2024-05-09T03:44:31.354Z,98909.00
2024-05-09T03:47:07.495Z,98905.00
2024-05-09T03:49:43.600Z,98910.00
2024-05-09T03:52:19.827Z,98906.00
2024-05-09T03:54:56.016Z,98918.00
2024-05-09T03:57:32.039Z,98911.00
2024-05-09T04:00:17.759Z,98911.00
2024-05-09T04:02:59.719Z,98916.00
2024-05-09T04:05:36.788Z,98919.00
2024-05-09T04:08:12.979Z,98921.00
2024-05-09T04:10:49.121Z,98919.00
2024-05-09T04:13:25.187Z,98928.00
2024-05-09T04:16:01.177Z,98923.00
2024-05-09T04:18:37.784Z,98919.00
2024-05-09T04:21:13.902Z,98921.00
2024-05-09T04:23:49.938Z,98920.00
2024-05-09T04:26:25.949Z,98921.00
2024-05-09T04:29:02.547Z,98916.00
2024-05-09T04:31:38.691Z,98919.00
2024-05-09T04:34:14.903Z,98915.00
2024-05-09T04:36:50.990Z,98921.00
2024-05-09T04:39:27.520Z,98916.00
2024-05-09T04:42:03.657Z,98915.00
2024-05-09T04:44:39.657Z,98925.00
2024-05-09T04:47:15.783Z,98926.00
2024-05-09T04:49:51.873Z,98930.00
2024-05-09T04:52:29.217Z,98934.00
2024-05-09T04:55:05.729Z,98929.00
2024-05-09T04:57:41.747Z,98936.00
2024-05-09T05:00:26.094Z,98935.00
2024-05-09T05:03:13.914Z,98928.00
2024-05-09T05:05:51.820Z,98933.00
2024-05-09T05:08:27.895Z,98934.00
2024-05-09T05:11:04.127Z,98942.00
2024-05-09T05:13:41.652Z,98939.00
2024-05-09T05:16:17.788Z,98943.00
2024-05-09T05:18:53.881Z,98944.00
2024-05-09T05:21:30.083Z,98945.00
2024-05-09T05:24:06.406Z,98944.00
2024-05-09T05:26:42.489Z,98949.00
2024-05-09T05:29:20.930Z,98947.00
2024-05-09T05:31:57.194Z,98943.00
2024-05-09T05:34:33.412Z,98954.00
2024-05-09T05:37:09.403Z,98951.00
2024-05-09T05:39:45.391Z,98942.00
2024-05-09T05:42:23.079Z,98952.00
2024-05-09T05:44:59.064Z,98950.00
2024-05-09T05:47:35.242Z,98944.00
2024-05-09T05:50:23.631Z,98944.00
2024-05-09T05:53:08.811Z,98949.00
2024-05-09T05:55:45.521Z,98940.00
2024-05-09T05:58:22.494Z,98946.00
2024-05-09T06:00:58.622Z,98957.00
2024-05-09T06:03:34.826Z,98950.00
2024-05-09T06:06:13.473Z,98956.00
2024-05-09T06:08:49.533Z,98961.00
2024-05-09T06:11:25.724Z,98964.00
2024-05-09T06:14:01.849Z,98958.00
2024-05-09T06:16:37.897Z,98956.00
2024-05-09T06:19:14.160Z,98959.00
2024-05-09T06:21:50.267Z,98965.00
2024-05-09T06:24:26.298Z,98958.00
2024-05-09T06:27:03.806Z,98956.00
2024-05-09T06:29:39.954Z,98955.00
2024-05-09T06:32:16.410Z,98952.00
2024-05-09T06:34:52.494Z,98945.00
2024-05-09T06:37:28.501Z,98950.00
2024-05-09T06:40:07.295Z,98957.00
2024-05-09T06:42:43.462Z,98964.00
2024-05-09T06:45:19.520Z,98956.00
2024-05-09T06:47:55.711Z,98963.00
2024-05-09T06:50:37.435Z,98957.00
2024-05-09T06:53:15.964Z,98952.00
2024-05-09T06:55:52.105Z,98953.00
2024-05-09T06:58:28.118Z,98965.00
2024-05-09T07:01:04.333Z,98967.00
2024-05-09T07:03:41.830Z,98965.00
2024-05-09T07:06:17.893Z,98957.00
2024-05-09T07:08:53.968Z,98962.00
2024-05-09T07:11:31.510Z,98956.00
2024-05-09T07:14:07.656Z,98953.00
2024-05-09T07:16:43.707Z,98955.00
2024-05-09T07:19:20.001Z,98951.00
2024-05-09T07:21:56.400Z,98949.00
2024-05-09T07:24:32.524Z,98954.00
2024-05-09T07:27:09.680Z,98947.00
2024-05-09T07:29:45.735Z,98953.00
2024-05-09T07:32:21.907Z,98956.00
2024-05-09T07:34:58.622Z,98952.00
2024-05-09T07:37:35.052Z,98950.00
2024-05-09T07:40:17.688Z,98948.00
2024-05-09T07:43:00.515Z,98940.00
2024-05-09T07:45:48.409Z,98938.00
2024-05-09T07:50:01.333Z,98938.00
2024-05-09T07:54:05.335Z,98943.00
2024-05-09T07:56:42.164Z,98944.00
2024-05-09T07:59:18.287Z,98934.00
2024-05-09T08:01:54.415Z,98929.00
2024-05-09T08:04:30.568Z,98928.00
2024-05-09T08:07:06.747Z,98941.00
2024-05-09T08:09:42.870Z,98933.00
2024-05-09T08:12:18.928Z,98930.00
2024-05-09T08:14:56.343Z,98927.00
2024-05-09T08:17:32.483Z,98927.00
2024-05-09T08:20:09.835Z,98922.00
2024-05-09T08:22:47.473Z,98918.00
2024-05-09T08:25:23.508Z,98916.00
2024-05-09T08:27:59.725Z,98908.00
2024-05-09T08:30:37.566Z,98908.00
2024-05-09T08:33:14.371Z,98912.00
2024-05-09T08:35:50.468Z,98923.00
2024-05-09T08:38:26.460Z,98903.00
2024-05-09T08:41:04.437Z,98920.00
2024-05-09T08:43:43.255Z,98913.00
2024-05-09T08:46:19.420Z,98911.00
2024-05-09T08:48:57.412Z,98912.00
2024-05-09T08:51:33.605Z,98912.00
2024-05-09T08:54:09.627Z,98903.00
2024-05-09T08:56:48.236Z,98895.00
2024-05-09T08:59:38.621Z,98904.00
2024-05-09T09:02:15.004Z,98896.00
2024-05-09T09:04:58.593Z,98904.00
2024-05-09T09:07:35.202Z,98891.00
2024-05-09T09:10:17.688Z,98900.00
2024-05-09T09:13:00.057Z,98894.00
2024-05-09T09:15:49.995Z,98890.00
2024-05-09T09:18:27.623Z,98892.00
2024-05-09T09:21:04.213Z,98891.00
2024-05-09T09:23:40.246Z,98893.00
2024-05-09T09:26:17.741Z,98890.00
2024-05-09T09:28:53.807Z,98893.00
2024-05-09T09:31:31.078Z,98893.00
2024-05-09T09:34:08.838Z,98891.00
2024-05-09T09:36:45.479Z,98893.00
2024-05-09T09:39:27.596Z,98894.00
2024-05-09T09:42:05.789Z,98886.00
2024-05-09T09:44:47.821Z,98888.00
2024-05-09T09:47:28.341Z,98898.00
2024-05-09T09:50:11.819Z,98888.00
2024-05-09T09:52:54.995Z,98891.00
2024-05-09T09:55:33.001Z,98882.00
2024-05-09T09:58:13.430Z,98890.00
2024-05-09T10:00:50.608Z,98888.00
2024-05-09T10:03:27.449Z,98890.00
2024-05-09T10:06:04.739Z,98887.00
2024-05-09T10:08:41.719Z,98883.00
2024-05-09T10:11:22.086Z,98882.00
2024-05-09T10:13:58.213Z,98886.00
2024-05-09T10:16:35.523Z,98889.00
2024-05-09T10:19:27.825Z,98876.00
2024-05-09T10:22:04.597Z,98876.00
2024-05-09T10:24:48.239Z,98883.00
2024-05-09T10:27:28.992Z,98879.00
2024-05-09T10:30:11.528Z,98874.00
2024-05-09T10:32:54.123Z,98872.00
2024-05-09T10:35:32.142Z,98864.00
2024-05-09T10:38:08.873Z,98870.00
2024-05-09T10:40:46.493Z,98861.00
2024-05-09T10:43:23.174Z,98863.00
2024-05-09T10:45:59.297Z,98861.00
2024-05-09T10:48:37.945Z,98858.00
2024-05-09T10:51:14.175Z,98849.00
2024-05-09T10:53:50.768Z,98862.00
2024-05-09T10:56:26.781Z,98856.00
2024-05-09T10:59:06.135Z,98865.00
2024-05-09T11:01:42.295Z,98851.00
2024-05-09T11:04:18.492Z,98851.00
2024-05-09T11:06:55.572Z,98851.00
2024-05-09T11:09:36.197Z,98845.00
2024-05-09T11:12:12.628Z,98847.00
2024-05-09T11:14:55.093Z,98844.00
2024-05-09T11:17:37.570Z,98844.00
2024-05-09T11:20:19.903Z,98845.00
2024-05-09T11:23:06.768Z,98837.00
2024-05-09T11:25:52.365Z,98833.00
2024-05-09T11:28:29.127Z,98831.00
2024-05-09T11:31:07.876Z,98834.00
2024-05-09T11:33:47.176Z,98827.00
2024-05-09T11:36:23.373Z,98835.00
2024-05-09T11:38:59.388Z,98825.00
2024-05-09T11:41:35.973Z,98824.00
2024-05-09T11:44:13.165Z,98820.00
2024-05-09T11:46:49.368Z,98821.00
2024-05-09T11:49:26.908Z,98816.00
2024-05-09T11:52:03.294Z,98815.00
2024-05-09T11:54:39.389Z,98811.00
2024-05-09T11:57:15.813Z,98814.00
2024-05-09T11:59:51.831Z,98810.00
2024-05-09T12:02:28.055Z,98815.00
2024-05-09T12:05:04.607Z,98803.00
2024-05-09T12:07:40.853Z,98808.00
2024-05-09T12:10:22.248Z,98799.00
2024-05-09T12:13:02.884Z,98799.00
2024-05-09T12:15:39.885Z,98805.00
2024-05-09T12:18:15.991Z,98798.00
2024-05-09T12:20:52.018Z,98783.00
2024-05-09T12:23:28.024Z,98792.00
2024-05-09T12:26:04.119Z,98776.00
2024-05-09T12:28:40.135Z,98782.00
2024-05-09T12:31:16.164Z,98779.00
2024-05-09T12:33:54.457Z,98781.00
2024-05-09T12:36:33.348Z,98781.00
2024-05-09T12:39:09.978Z,98776.00
2024-05-09T12:41:46.023Z,98776.00
2024-05-09T12:44:22.038Z,98785.00
2024-05-09T12:46:58.103Z,98779.00
2024-05-09T12:49:34.300Z,98774.00
2024-05-09T12:52:10.460Z,98770.00
2024-05-09T12:54:46.525Z,98781.00
2024-05-09T12:57:22.695Z,98766.00
2024-05-09T12:59:59.609Z,98766.00
2024-05-09T13:02:35.774Z,98769.00
2024-05-09T13:05:12.108Z,98767.00
2024-05-09T13:07:48.177Z,98760.00
2024-05-09T13:10:31.633Z,98762.00
2024-05-09T13:13:10.603Z,98763.00
2024-05-09T13:15:46.953Z,98763.00
2024-05-09T13:18:22.978Z,98749.00
2024-05-09T13:20:58.989Z,98748.00
2024-05-09T13:23:35.735Z,98756.00
2024-05-09T13:26:11.739Z,98752.00
2024-05-09T13:28:47.802Z,98747.00
2024-05-09T13:31:23.957Z,98758.00
2024-05-09T13:34:00.244Z,98742.00
2024-05-09T13:36:36.470Z,98742.00
2024-05-09T13:39:12.550Z,98731.00
2024-05-09T13:41:48.571Z,98741.00
2024-05-09T13:44:24.812Z,98734.00
2024-05-09T13:47:00.885Z,98729.00
2024-05-09T13:49:37.089Z,98731.00
2024-05-09T13:52:13.380Z,98733.00
2024-05-09T13:54:49.491Z,98724.00
2024-05-09T13:57:26.104Z,98726.00
2024-05-09T14:00:03.606Z,98719.00
2024-05-09T14:02:47.515Z,98709.00
2024-05-09T14:05:23.680Z,98717.00
2024-05-09T14:08:00.781Z,98711.00
2024-05-09T14:10:44.285Z,98705.00
2024-05-09T14:13:21.036Z,98698.00
2024-05-09T14:15:57.585Z,98697.00
2024-05-09T14:18:34.285Z,98696.00
2024-05-09T14:21:10.419Z,98694.00
2024-05-09T14:23:46.436Z,98691.00
2024-05-09T14:26:22.529Z,98692.00
2024-05-09T14:28:58.642Z,98689.00
2024-05-09T14:31:36.948Z,98685.00
2024-05-09T14:34:14.993Z,98685.00
2024-05-09T14:36:51.259Z,98676.00
2024-05-09T14:39:27.284Z,98681.00
2024-05-09T14:42:03.422Z,98672.00
2024-05-09T14:44:39.439Z,98673.00
2024-05-09T14:47:17.173Z,98677.00
2024-05-09T14:49:53.419Z,98672.00
2024-05-09T14:52:29.455Z,98672.00
2024-05-09T14:55:07.079Z,98670.00
2024-05-09T14:57:44.044Z,98666.00
2024-05-09T15:00:26.320Z,98666.00
2024-05-09T15:03:08.958Z,98672.00
2024-05-09T15:05:45.316Z,98661.00
2024-05-09T15:08:21.529Z,98662.00
2024-05-09T15:10:57.793Z,98658.00
2024-05-09T15:13:34.038Z,98658.00
2024-05-09T15:16:10.134Z,98656.00
2024-05-09T15:18:46.423Z,98650.00
2024-05-09T15:21:22.549Z,98653.00
2024-05-09T15:23:58.563Z,98647.00
2024-05-09T15:26:34.613Z,98646.00
2024-05-09T15:29:10.701Z,98649.00
2024-05-09T15:31:46.739Z,98648.00
2024-05-09T15:34:22.778Z,98640.00
2024-05-09T15:36:58.977Z,98645.00
2024-05-09T15:39:35.070Z,98644.00
2024-05-09T15:42:12.266Z,98646.00
2024-05-09T15:44:52.847Z,98645.00
2024-05-09T15:47:28.949Z,98639.00
2024-05-09T15:50:09.792Z,98641.00
2024-05-09T15:52:50.748Z,98633.00
2024-05-09T15:55:28.000Z,98633.00
2024-05-09T15:58:05.175Z,98630.00
2024-05-09T16:00:44.781Z,98631.00
2024-05-09T16:03:22.502Z,98640.00
2024-05-09T16:05:58.817Z,98629.00
2024-05-09T16:08:37.083Z,98632.00
2024-05-09T16:11:16.705Z,98628.00
2024-05-09T16:13:52.790Z,98624.00
2024-05-09T16:16:28.952Z,98640.00
2024-05-09T16:19:05.215Z,98634.00
2024-05-09T16:21:41.296Z,98632.00
2024-05-09T16:24:17.309Z,98622.00
2024-05-09T16:26:53.715Z,98625.00
2024-05-09T16:29:29.839Z,98622.00
2024-05-09T16:32:06.421Z,98631.00
2024-05-09T16:34:42.480Z,98629.00
2024-05-09T16:37:18.642Z,98628.00
2024-05-09T16:39:54.712Z,98624.00
2024-05-09T16:42:31.615Z,98630.00
2024-05-09T16:45:07.908Z,98627.00
2024-05-09T16:47:43.971Z,98619.00
2024-05-09T16:50:26.415Z,98619.00
2024-05-09T16:53:07.579Z,98615.00
2024-05-09T16:55:43.684Z,98618.00
2024-05-09T16:58:19.800Z,98616.00
2024-05-09T17:00:56.102Z,98619.00
2024-05-09T17:03:32.391Z,98613.00
2024-05-09T17:06:10.522Z,98616.00
2024-05-09T17:08:46.548Z,98616.00
2024-05-09T17:11:22.662Z,98616.00
2024-05-09T17:13:58.702Z,98616.00
2024-05-09T17:16:35.458Z,98616.00
2024-05-09T17:19:11.708Z,98611.00
2024-05-09T17:21:47.860Z,98609.00
2024-05-09T17:24:23.849Z,98619.00
2024-05-09T17:27:00.203Z,98614.00
2024-05-09T17:29:37.454Z,98613.00
2024-05-09T17:32:13.639Z,98615.00
2024-05-09T17:34:49.776Z,98615.00
2024-05-09T17:37:26.844Z,98613.00
2024-05-09T17:40:06.654Z,98617.00
2024-05-09T17:42:45.178Z,98617.00
2024-05-09T17:45:21.188Z,98620.00
2024-05-09T17:47:57.507Z,98614.00
2024-05-09T17:50:36.449Z,98608.00
2024-05-09T17:53:13.781Z,98611.00
2024-05-09T17:55:49.840Z,98616.00
2024-05-09T17:58:26.280Z,98609.00
2024-05-09T18:01:02.503Z,98612.00
2024-05-09T18:03:39.569Z,98620.00
2024-05-09T18:06:16.669Z,98618.00
2024-05-09T18:08:52.696Z,98619.00
2024-05-09T18:11:28.707Z,98617.00
2024-05-09T18:14:04.724Z,98626.00
2024-05-09T18:16:40.742Z,98628.00
2024-05-09T18:19:17.026Z,98625.00
2024-05-09T18:21:53.930Z,98613.00
2024-05-09T18:24:29.918Z,98619.00
2024-05-09T18:27:06.192Z,98627.00
2024-05-09T18:29:42.175Z,98629.00
2024-05-09T18:32:18.165Z,98622.00
2024-05-09T18:34:54.170Z,98627.00
2024-05-09T18:37:30.425Z,98624.00
2024-05-09T18:40:11.762Z,98631.00
2024-05-09T18:42:48.016Z,98623.00
2024-05-09T18:45:24.010Z,98631.00
2024-05-09T18:48:00.284Z,98627.00
2024-05-09T18:50:39.944Z,98632.00
2024-05-09T18:53:17.282Z,98633.00
2024-05-09T18:55:53.393Z,98639.00
2024-05-09T18:58:29.513Z,98629.00
2024-05-09T19:01:06.189Z,98640.00
2024-05-09T19:03:42.841Z,98628.00
2024-05-09T19:06:21.949Z,98646.00
2024-05-09T19:08:59.998Z,98643.00
2024-05-09T19:11:36.039Z,98646.00
2024-05-09T19:14:12.089Z,98646.00
2024-05-09T19:16:48.111Z,98647.00
2024-05-09T19:19:24.208Z,98655.00
2024-05-09T19:22:00.395Z,98659.00
2024-05-09T19:24:36.463Z,98659.00
2024-05-09T19:27:12.643Z,98655.00
2024-05-09T19:29:48.625Z,98658.00
2024-05-09T19:32:24.782Z,98656.00
2024-05-09T19:35:00.863Z,98663.00
2024-05-09T19:37:36.926Z,98657.00
2024-05-09T19:40:20.864Z,98663.00
2024-05-09T19:43:05.809Z,98662.00
2024-05-09T19:45:43.484Z,98660.00
2024-05-09T19:48:21.018Z,98659.00
2024-05-09T19:50:57.377Z,98663.00
2024-05-09T19:53:33.440Z,98668.00
2024-05-09T19:56:09.487Z,98667.00
2024-05-09T19:58:46.240Z,98659.00
2024-05-09T20:01:22.336Z,98667.00
2024-05-09T20:03:59.239Z,98657.00
2024-05-09T20:06:37.627Z,98665.00
2024-05-09T20:09:14.004Z,98660.00
2024-05-09T20:11:50.018Z,98660.00
2024-05-09T20:14:26.079Z,98667.00
2024-05-09T20:17:02.146Z,98663.00
2024-05-09T20:19:38.365Z,98670.00
2024-05-09T20:22:14.490Z,98667.00
2024-05-09T20:24:50.532Z,98665.00
2024-05-09T20:27:26.574Z,98666.00
2024-05-09T20:30:05.323Z,98663.00
2024-05-09T20:32:42.680Z,98672.00
2024-05-09T20:35:18.794Z,98669.00
2024-05-09T20:37:54.834Z,98668.00
2024-05-09T20:40:35.130Z,98672.00
2024-05-09T20:43:14.117Z,98671.00
2024-05-09T20:45:50.147Z,98673.00
2024-05-09T20:48:26.443Z,98667.00
2024-05-09T20:51:02.560Z,98671.00
2024-05-09T20:53:38.550Z,98673.00
2024-05-09T20:56:14.524Z,98672.00
2024-05-09T20:58:50.509Z,98679.00
2024-05-09T21:01:26.622Z,98679.00
2024-05-09T21:04:02.813Z,98675.00
2024-05-09T21:06:38.980Z,98672.00
2024-05-09T21:09:15.101Z,98672.00
2024-05-09T21:11:51.709Z,98672.00
2024-05-09T21:14:27.834Z,98670.00
2024-05-09T21:17:04.128Z,98668.00
2024-05-09T21:19:40.214Z,98670.00
2024-05-09T21:22:16.402Z,98663.00
2024-05-09T21:24:52.510Z,98665.00
2024-05-09T21:27:28.641Z,98667.00
2024-05-09T21:30:07.773Z,98668.00
2024-05-09T21:32:46.239Z,98666.00
2024-05-09T21:35:22.339Z,98660.00
2024-05-09T21:37:58.434Z,98658.00
2024-05-09T21:40:36.179Z,98654.00
2024-05-09T21:43:14.359Z,98660.00
2024-05-09T21:45:50.503Z,98659.00
2024-05-09T21:48:26.645Z,98656.00
2024-05-09T21:51:02.715Z,98656.00
2024-05-09T21:53:40.511Z,98653.00
2024-05-09T21:56:16.507Z,98657.00
2024-05-09T21:58:52.620Z,98653.00
2024-05-09T22:01:28.776Z,98654.00
2024-05-09T22:04:05.065Z,98650.00
2024-05-09T22:06:41.179Z,98653.00
2024-05-09T22:09:17.185Z,98657.00
2024-05-09T22:11:54.443Z,98655.00
2024-05-09T22:14:30.765Z,98646.00
2024-05-09T22:17:06.769Z,98652.00
2024-05-09T22:19:47.115Z,98645.00
2024-05-09T22:22:23.164Z,98656.00
2024-05-09T22:24:59.239Z,98652.00
2024-05-09T22:27:35.358Z,98647.00
2024-05-09T22:30:14.797Z,98643.00
2024-05-09T22:32:57.036Z,98648.00
2024-05-09T22:35:33.362Z,98649.00
2024-05-09T22:38:09.492Z,98649.00
2024-05-09T22:40:48.798Z,98646.00
2024-05-09T22:43:26.096Z,98652.00
2024-05-09T22:46:03.220Z,98657.00
2024-05-09T22:48:39.587Z,98654.00
2024-05-09T22:51:15.685Z,98655.00
2024-05-09T22:53:51.678Z,98657.00
2024-05-09T22:56:28.583Z,98663.00
2024-05-09T22:59:04.622Z,98664.00
2024-05-09T23:01:40.710Z,98662.00
2024-05-09T23:04:16.847Z,98662.00
2024-05-09T23:06:52.922Z,98667.00
2024-05-09T23:09:28.909Z,98656.00
2024-05-09T23:12:05.676Z,98655.00
2024-05-09T23:14:42.617Z,98656.00
2024-05-09T23:17:18.905Z,98656.00
2024-05-09T23:19:54.938Z,98656.00
2024-05-09T23:22:31.275Z,98656.00
2024-05-09T23:25:07.616Z,98656.00
2024-05-09T23:27:43.636Z,98649.00
2024-05-09T23:30:29.156Z,98657.00
2024-05-09T23:33:14.127Z,98650.00
2024-05-09T23:35:50.581Z,98643.00
2024-05-09T23:38:26.576Z,98656.00
2024-05-09T23:41:02.609Z,98651.00
2024-05-09T23:43:38.645Z,98648.00
2024-05-09T23:46:14.709Z,98638.00
2024-05-09T23:48:51.681Z,98647.00
2024-05-09T23:51:27.731Z,98642.00
2024-05-09T23:54:03.887Z,98641.00
2024-05-09T23:56:39.877Z,98639.00
2024-05-09T23:59:15.870Z,98632.00
